createdAt,value
2017-07-15T00:00:23.754Z,11.43
2017-07-15T00:02:51.055Z,11.20
2017-07-15T00:05:18.372Z,11.00
2017-07-15T00:07:45.678Z,11.07
2017-07-15T00:10:13.014Z,10.80
2017-07-15T00:12:40.560Z,9.93
2017-07-15T00:15:07.893Z,11.13
2017-07-15T00:17:35.530Z,10.93
2017-07-15T00:20:02.838Z,11.00
2017-07-15T00:22:30.159Z,10.10
2017-07-15T00:24:57.477Z,11.43
2017-07-15T00:27:24.823Z,9.87
2017-07-15T00:29:52.121Z,10.80
2017-07-15T00:32:19.464Z,10.27
2017-07-15T00:34:46.819Z,10.57
2017-07-15T00:37:14.128Z,10.50
2017-07-15T00:39:41.476Z,11.03
2017-07-15T00:42:08.809Z,11.00
2017-07-15T00:44:36.188Z,10.60
2017-07-15T00:47:03.488Z,10.60
2017-07-15T00:49:30.810Z,10.73
2017-07-15T00:51:58.140Z,11.43
2017-07-15T00:54:25.438Z,11.10
2017-07-15T00:56:53.073Z,11.17
2017-07-15T00:59:20.400Z,11.67
2017-07-15T01:01:47.797Z,11.97
2017-07-15T01:04:15.088Z,11.60
2017-07-15T01:06:42.622Z,12.90
2017-07-15T01:09:09.942Z,13.23
2017-07-15T01:11:37.259Z,12.13
2017-07-15T01:14:04.867Z,13.17
2017-07-15T01:16:32.196Z,13.00
2017-07-15T01:18:59.635Z,13.00
2017-07-15T01:21:26.951Z,12.70
2017-07-15T01:23:54.257Z,12.27
2017-07-15T01:26:21.582Z,13.77
2017-07-15T01:28:48.924Z,14.10
2017-07-15T01:31:16.313Z,12.90
2017-07-15T01:33:43.607Z,12.93
2017-07-15T01:36:10.937Z,13.20
2017-07-15T01:38:38.275Z,12.90
2017-07-15T01:41:05.631Z,12.30
2017-07-15T01:43:32.924Z,13.50
2017-07-15T01:46:00.620Z,13.70
2017-07-15T01:48:27.939Z,13.17
2017-07-15T01:50:55.280Z,13.00
2017-07-15T01:53:22.610Z,12.57
2017-07-15T01:55:49.917Z,13.67
2017-07-15T01:58:17.370Z,13.20
2017-07-15T02:00:44.677Z,13.17
2017-07-15T02:03:12.004Z,12.60
2017-07-15T02:05:39.353Z,14.40
2017-07-15T02:08:06.651Z,13.83
2017-07-15T02:10:34.977Z,13.30
2017-07-15T02:13:02.317Z,14.13
2017-07-15T02:15:29.651Z,14.67
2017-07-15T02:17:56.940Z,14.10
2017-07-15T02:20:24.269Z,13.77
2017-07-15T02:22:51.567Z,14.60
2017-07-15T02:25:18.872Z,14.27
2017-07-15T02:27:46.185Z,14.43
2017-07-15T02:30:13.489Z,13.60
2017-07-15T02:32:41.737Z,15.43
2017-07-15T02:35:09.071Z,15.23
2017-07-15T02:37:36.420Z,14.70
2017-07-15T02:40:03.741Z,15.37
2017-07-15T02:42:31.038Z,15.13
2017-07-15T02:44:58.360Z,14.47
2017-07-15T02:47:25.669Z,15.03
2017-07-15T02:49:53.022Z,16.00
2017-07-15T02:52:20.337Z,15.33
2017-07-15T02:54:47.686Z,14.80
2017-07-15T02:57:15.130Z,15.10
2017-07-15T02:59:42.667Z,15.10
2017-07-15T03:02:10.017Z,15.10
2017-07-15T03:04:37.330Z,15.30
2017-07-15T03:07:04.667Z,14.70
2017-07-15T03:09:32.010Z,14.83
2017-07-15T03:11:59.361Z,15.70
2017-07-15T03:14:26.674Z,15.03
2017-07-15T03:16:53.982Z,14.53
2017-07-15T03:19:21.336Z,15.13
2017-07-15T03:21:48.644Z,14.23
2017-07-15T03:24:16.009Z,14.17
2017-07-15T03:26:49.418Z,15.60
2017-07-15T03:29:16.748Z,14.27
2017-07-15T03:31:44.062Z,14.80
2017-07-15T03:34:11.458Z,14.20
2017-07-15T03:36:38.795Z,14.40
2017-07-15T03:39:06.098Z,14.10
2017-07-15T03:41:33.416Z,15.43
2017-07-15T03:44:00.744Z,14.87
2017-07-15T03:46:28.061Z,14.27
2017-07-15T03:48:55.404Z,14.60
2017-07-15T03:51:22.721Z,14.40
2017-07-15T03:53:50.025Z,14.17
2017-07-15T03:56:17.476Z,14.13
2017-07-15T03:58:44.843Z,14.20
2017-07-15T04:01:12.150Z,13.97
2017-07-15T04:03:39.447Z,14.73
2017-07-15T04:06:06.778Z,14.40
2017-07-15T04:08:34.086Z,15.10
2017-07-15T04:11:01.454Z,14.10
2017-07-15T04:13:28.767Z,14.43
2017-07-15T04:15:56.090Z,14.60
2017-07-15T04:18:23.452Z,14.70
2017-07-15T04:20:50.773Z,14.23
2017-07-15T04:23:18.120Z,14.30
2017-07-15T04:25:45.452Z,14.60
2017-07-15T04:28:12.918Z,13.70
2017-07-15T04:30:40.242Z,14.90
2017-07-15T04:33:07.589Z,14.03
2017-07-15T04:35:34.897Z,14.87
2017-07-15T04:38:02.207Z,14.23
2017-07-15T04:40:29.801Z,14.67
2017-07-15T04:42:57.127Z,13.73
2017-07-15T04:45:24.428Z,13.93
2017-07-15T04:47:51.770Z,14.50
2017-07-15T04:50:19.070Z,14.67
2017-07-15T04:52:46.448Z,14.50
2017-07-15T04:55:13.783Z,14.50
2017-07-15T04:57:41.112Z,14.20
2017-07-15T05:00:08.444Z,14.17
2017-07-15T05:02:35.763Z,14.43
2017-07-15T05:05:03.156Z,14.07
2017-07-15T05:07:30.452Z,13.30
2017-07-15T05:09:57.811Z,13.97
2017-07-15T05:12:25.136Z,13.60
2017-07-15T05:14:52.486Z,13.53
2017-07-15T05:17:19.832Z,13.50
2017-07-15T05:19:47.137Z,15.13
2017-07-15T05:22:14.481Z,13.47
2017-07-15T05:24:41.791Z,13.63
2017-07-15T05:27:09.149Z,13.03
2017-07-15T05:29:36.471Z,13.37
2017-07-15T05:32:03.801Z,12.73
2017-07-15T05:34:31.137Z,13.97
2017-07-15T05:36:58.717Z,13.60
2017-07-15T05:39:26.038Z,13.73
2017-07-15T05:41:53.345Z,13.77
2017-07-15T05:44:21.479Z,13.83
2017-07-15T05:46:48.807Z,12.77
2017-07-15T05:49:16.345Z,13.33
2017-07-15T05:51:43.688Z,13.70
2017-07-15T05:54:11.016Z,14.50
2017-07-15T05:56:38.366Z,13.30
2017-07-15T05:59:05.690Z,13.87
2017-07-15T06:01:33.271Z,13.20
2017-07-15T06:04:00.563Z,12.90
2017-07-15T06:06:27.908Z,13.10
2017-07-15T06:08:55.221Z,13.30
2017-07-15T06:11:22.573Z,12.20
2017-07-15T06:13:49.936Z,12.50
2017-07-15T06:16:17.261Z,11.47
2017-07-15T06:18:44.604Z,11.90
2017-07-15T06:21:11.913Z,11.23
2017-07-15T06:23:39.257Z,12.60
2017-07-15T06:26:06.635Z,12.30
2017-07-15T06:28:33.968Z,11.80
2017-07-15T06:31:01.322Z,11.53
2017-07-15T06:33:28.664Z,12.60
2017-07-15T06:35:56.009Z,11.40
2017-07-15T06:38:23.340Z,11.63
2017-07-15T06:40:50.667Z,11.67
2017-07-15T06:43:18.042Z,11.97
2017-07-15T06:45:46.328Z,11.40
2017-07-15T06:48:13.635Z,11.70
2017-07-15T06:50:40.959Z,12.17
2017-07-15T06:53:08.299Z,11.70
2017-07-15T06:55:35.713Z,12.03
2017-07-15T06:58:03.033Z,10.50
2017-07-15T07:00:31.938Z,11.93
2017-07-15T07:02:59.261Z,11.70
2017-07-15T07:05:26.586Z,12.70
2017-07-15T07:07:54.978Z,11.93
2017-07-15T07:10:22.624Z,11.80
2017-07-15T07:12:49.960Z,11.53
2017-07-15T07:15:17.262Z,10.93
2017-07-15T07:17:44.584Z,12.10
2017-07-15T07:20:11.904Z,11.27
2017-07-15T07:22:39.248Z,11.40
2017-07-15T07:25:06.608Z,11.40
2017-07-15T07:27:33.933Z,10.47
2017-07-15T07:30:01.277Z,10.40
2017-07-15T07:32:28.589Z,11.63
2017-07-15T07:34:55.913Z,11.97
2017-07-15T07:37:23.214Z,10.57
2017-07-15T07:39:50.550Z,10.10
2017-07-15T07:42:17.875Z,9.73
2017-07-15T07:44:45.336Z,11.10
2017-07-15T07:47:12.951Z,10.30
2017-07-15T07:49:40.278Z,9.90
2017-07-15T07:52:07.565Z,8.97
2017-07-15T07:54:34.887Z,9.07
2017-07-15T07:57:02.235Z,10.63
2017-07-15T07:59:29.571Z,10.77
2017-07-15T08:01:57.045Z,10.47
2017-07-15T08:04:24.351Z,10.77
2017-07-15T08:06:53.252Z,9.90
2017-07-15T08:09:20.579Z,10.53
2017-07-15T08:11:47.926Z,10.37
2017-07-15T08:14:15.266Z,10.23
2017-07-15T08:16:42.605Z,10.33
2017-07-15T08:19:09.936Z,9.60
2017-07-15T08:21:37.286Z,8.50
2017-07-15T08:24:04.985Z,7.73
2017-07-15T08:26:32.284Z,8.50
2017-07-15T08:28:59.619Z,9.30
2017-07-15T08:31:26.937Z,8.80
2017-07-15T08:33:54.247Z,9.00
2017-07-15T08:36:21.543Z,7.83
2017-07-15T08:38:48.868Z,8.13
2017-07-15T08:41:16.192Z,7.37
2017-07-15T08:43:43.514Z,7.07
2017-07-15T08:46:10.972Z,7.23
2017-07-15T08:48:38.285Z,7.30
2017-07-15T08:51:06.550Z,7.87
2017-07-15T08:53:33.878Z,7.60
2017-07-15T08:56:01.176Z,6.23
2017-07-15T08:58:28.483Z,6.33
2017-07-15T09:00:56.036Z,6.57
2017-07-15T09:03:23.349Z,7.43
2017-07-15T09:05:50.654Z,6.67
2017-07-15T09:08:17.995Z,6.93
2017-07-15T09:10:45.329Z,6.50
2017-07-15T09:13:12.681Z,6.40
2017-07-15T09:15:40.088Z,6.60
2017-07-15T09:18:07.382Z,5.70
2017-07-15T09:20:34.680Z,5.70
2017-07-15T09:23:01.977Z,5.80
2017-07-15T09:25:29.324Z,7.03
2017-07-15T09:27:57.444Z,6.37
2017-07-15T09:30:24.793Z,6.80
2017-07-15T09:32:52.144Z,6.10
2017-07-15T09:35:19.496Z,6.20
2017-07-15T09:37:46.795Z,6.50
2017-07-15T09:40:14.575Z,6.00
2017-07-15T09:42:41.906Z,7.00
2017-07-15T09:45:09.221Z,6.30
2017-07-15T09:47:36.587Z,6.17
2017-07-15T09:50:03.895Z,6.40
2017-07-15T09:52:31.215Z,7.60
2017-07-15T09:54:58.517Z,7.27
2017-07-15T09:57:25.910Z,8.00
2017-07-15T09:59:53.205Z,8.00
2017-07-15T10:02:20.546Z,7.67
2017-07-15T10:04:47.949Z,7.77
2017-07-15T10:07:15.405Z,7.30
2017-07-15T10:09:42.707Z,7.93
2017-07-15T10:12:10.077Z,7.43
2017-07-15T10:14:37.414Z,6.90
2017-07-15T10:17:04.721Z,6.70
2017-07-15T10:19:32.015Z,6.30
2017-07-15T10:21:59.329Z,6.67
2017-07-15T10:24:26.641Z,8.03
2017-07-15T10:26:53.932Z,7.30
2017-07-15T10:29:21.279Z,7.60
2017-07-15T10:31:48.569Z,6.50
2017-07-15T10:34:15.864Z,6.63
2017-07-15T10:36:43.294Z,7.30
2017-07-15T10:39:11.573Z,7.30
2017-07-15T10:41:38.876Z,8.20
2017-07-15T10:44:06.190Z,8.10
2017-07-15T10:46:33.471Z,7.90
2017-07-15T10:49:00.812Z,8.73
2017-07-15T10:51:28.113Z,9.17
2017-07-15T10:53:55.419Z,9.03
2017-07-15T10:56:22.719Z,8.30
2017-07-15T10:58:50.021Z,8.90
2017-07-15T11:01:17.327Z,8.80
2017-07-15T11:03:44.672Z,9.30
2017-07-15T11:06:12.934Z,7.30
2017-07-15T11:08:40.243Z,7.73
2017-07-15T11:11:08.529Z,8.00
2017-07-15T11:13:36.231Z,7.80
2017-07-15T11:16:03.557Z,8.20
2017-07-15T11:18:31.490Z,7.40
2017-07-15T11:20:58.826Z,7.27
2017-07-15T11:23:26.131Z,7.03
2017-07-15T11:25:53.447Z,6.90
2017-07-15T11:28:20.811Z,6.70
2017-07-15T11:30:48.153Z,6.00
2017-07-15T11:33:15.700Z,6.60
2017-07-15T11:35:43.473Z,6.50
2017-07-15T11:38:10.811Z,6.40
2017-07-15T11:40:38.141Z,6.33
2017-07-15T11:43:05.495Z,6.90
2017-07-15T11:45:32.838Z,6.60
2017-07-15T11:48:00.230Z,5.97
2017-07-15T11:50:27.541Z,6.20
2017-07-15T11:52:54.858Z,5.83
2017-07-15T11:55:22.198Z,6.53
2017-07-15T11:57:49.513Z,6.73
2017-07-15T12:00:16.800Z,6.73
2017-07-15T12:02:44.124Z,6.40
2017-07-15T12:05:11.444Z,5.67
2017-07-15T12:07:38.753Z,5.70
2017-07-15T12:10:06.048Z,5.60
2017-07-15T12:12:33.365Z,5.43
2017-07-15T12:15:00.681Z,5.70
2017-07-15T12:17:27.978Z,6.60
2017-07-15T12:19:55.371Z,5.93
2017-07-15T12:22:22.685Z,5.77
2017-07-15T12:24:52.932Z,6.33
2017-07-15T12:27:20.239Z,5.37
2017-07-15T12:29:47.558Z,6.10
2017-07-15T12:32:14.881Z,5.73
2017-07-15T12:34:42.215Z,5.57
2017-07-15T12:37:09.522Z,5.60
2017-07-15T12:39:36.836Z,5.17
2017-07-15T12:42:04.129Z,5.83
2017-07-15T12:44:31.471Z,5.50
2017-07-15T12:46:58.754Z,5.50
2017-07-15T12:49:26.053Z,6.37
2017-07-15T12:51:53.368Z,6.10
2017-07-15T12:54:20.695Z,5.90
2017-07-15T12:56:48.180Z,6.37
2017-07-15T12:59:15.490Z,6.50
2017-07-15T13:01:42.810Z,5.73
2017-07-15T13:04:10.092Z,6.27
2017-07-15T13:06:37.402Z,5.93
2017-07-15T13:09:04.684Z,6.27
2017-07-15T13:11:32.005Z,6.30
2017-07-15T13:14:00.055Z,6.10
2017-07-15T13:16:27.366Z,6.50
2017-07-15T13:18:54.655Z,6.50
2017-07-15T13:21:21.999Z,5.60
2017-07-15T13:23:49.656Z,5.90
2017-07-15T13:26:17.028Z,6.07
2017-07-15T13:28:44.339Z,5.67
2017-07-15T13:31:12.098Z,6.07
2017-07-15T13:33:39.415Z,6.37
2017-07-15T13:36:06.716Z,6.30
2017-07-15T13:38:34.020Z,6.30
2017-07-15T13:41:01.349Z,6.90
2017-07-15T13:43:28.664Z,6.57
2017-07-15T13:45:55.940Z,6.53
2017-07-15T13:48:23.277Z,6.63
2017-07-15T13:50:50.592Z,6.57
2017-07-15T13:53:17.904Z,6.30
2017-07-15T13:55:45.495Z,6.47
2017-07-15T13:58:12.799Z,6.20
2017-07-15T14:00:40.104Z,6.40
2017-07-15T14:03:07.403Z,5.90
2017-07-15T14:05:34.713Z,5.90
2017-07-15T14:08:02.015Z,6.33
2017-07-15T14:10:29.389Z,6.20
2017-07-15T14:12:56.738Z,6.20
2017-07-15T14:15:24.084Z,6.40
2017-07-15T14:17:51.391Z,5.90
2017-07-15T14:20:19.014Z,5.00
2017-07-15T14:22:46.338Z,4.50
2017-07-15T14:25:13.648Z,4.77
2017-07-15T14:27:40.945Z,4.90
2017-07-15T14:30:09.059Z,4.40
2017-07-15T14:32:36.358Z,4.33
2017-07-15T14:35:03.668Z,4.77
2017-07-15T14:37:30.967Z,4.40
2017-07-15T14:39:58.269Z,5.00
2017-07-15T14:42:25.604Z,5.50
2017-07-15T14:44:52.962Z,5.87
2017-07-15T14:47:20.283Z,5.33
2017-07-15T14:49:48.914Z,5.90
2017-07-15T14:52:17.172Z,5.60
2017-07-15T14:54:44.469Z,5.43
2017-07-15T14:57:11.792Z,5.50
2017-07-15T14:59:39.089Z,5.83
2017-07-15T15:02:06.396Z,5.67
2017-07-15T15:04:33.704Z,5.83
2017-07-15T15:07:07.910Z,5.87
2017-07-15T15:09:35.205Z,6.60
2017-07-15T15:12:02.588Z,6.70
2017-07-15T15:14:29.912Z,6.43
2017-07-15T15:16:57.280Z,6.20
2017-07-15T15:19:24.602Z,6.80
2017-07-15T15:21:51.907Z,5.97
2017-07-15T15:24:19.233Z,6.30
2017-07-15T15:26:46.532Z,5.93
2017-07-15T15:29:13.845Z,6.37
2017-07-15T15:31:41.128Z,5.90
2017-07-15T15:34:08.571Z,6.60
2017-07-15T15:36:35.883Z,6.57
2017-07-15T15:39:03.186Z,5.93
2017-07-15T15:41:30.494Z,6.23
2017-07-15T15:43:57.792Z,7.03
2017-07-15T15:46:25.090Z,7.07
2017-07-15T15:48:52.413Z,7.70
2017-07-15T15:51:19.734Z,7.43
2017-07-15T15:53:47.023Z,9.20
2017-07-15T15:56:14.347Z,10.40
2017-07-15T15:58:42.261Z,7.70
2017-07-15T16:01:09.579Z,7.27
2017-07-15T16:03:36.907Z,6.90
2017-07-15T16:06:04.213Z,7.40
2017-07-15T16:08:31.559Z,7.57
2017-07-15T16:10:58.902Z,7.03
2017-07-15T16:13:26.245Z,6.60
2017-07-15T16:15:53.578Z,6.83
2017-07-15T16:18:20.900Z,6.80
2017-07-15T16:20:48.477Z,7.73
2017-07-15T16:23:15.776Z,7.27
2017-07-15T16:25:43.229Z,7.80
2017-07-15T16:28:10.545Z,6.67
2017-07-15T16:30:37.828Z,7.70
2017-07-15T16:33:05.169Z,7.80
2017-07-15T16:35:32.462Z,8.47
2017-07-15T16:37:59.769Z,7.70
2017-07-15T16:40:27.089Z,8.60
2017-07-15T16:42:54.427Z,7.00
2017-07-15T16:45:21.761Z,7.10
2017-07-15T16:47:49.101Z,8.70
2017-07-15T16:50:16.403Z,8.47
2017-07-15T16:52:43.905Z,8.90
2017-07-15T16:55:11.237Z,9.10
2017-07-15T16:57:38.540Z,8.43
2017-07-15T17:00:05.927Z,9.00
2017-07-15T17:02:33.292Z,8.83
2017-07-15T17:05:00.591Z,9.50
2017-07-15T17:07:27.905Z,9.43
2017-07-15T17:09:55.242Z,9.10
2017-07-15T17:12:22.554Z,9.27
2017-07-15T17:14:49.900Z,9.50
2017-07-15T17:17:17.211Z,9.00
2017-07-15T17:19:44.553Z,9.17
2017-07-15T17:22:11.939Z,9.57
2017-07-15T17:24:39.260Z,9.53
2017-07-15T17:27:06.555Z,11.10
2017-07-15T17:29:33.869Z,11.30
2017-07-15T17:32:01.177Z,10.63
2017-07-15T17:34:28.505Z,9.13
2017-07-15T17:36:56.761Z,10.33
2017-07-15T17:39:24.484Z,10.00
2017-07-15T17:41:51.823Z,8.60
2017-07-15T17:44:19.132Z,9.17
2017-07-15T17:46:46.437Z,7.70
2017-07-15T17:49:13.957Z,7.40
2017-07-15T17:51:41.260Z,7.63
2017-07-15T17:54:08.565Z,6.90
2017-07-15T17:56:35.911Z,7.30
2017-07-15T17:59:03.231Z,7.93
2017-07-15T18:01:30.919Z,7.63
2017-07-15T18:03:58.209Z,8.30
2017-07-15T18:06:25.547Z,7.93
2017-07-15T18:08:52.855Z,8.00
2017-07-15T18:11:20.186Z,8.00
2017-07-15T18:13:47.477Z,7.70
2017-07-15T18:16:14.776Z,8.00
2017-07-15T18:18:42.810Z,8.60
2017-07-15T18:21:10.111Z,8.80
2017-07-15T18:23:37.432Z,8.60
2017-07-15T18:26:05.711Z,8.30
2017-07-15T18:28:34.924Z,7.13
2017-07-15T18:31:02.248Z,6.97
2017-07-15T18:33:29.611Z,6.70
2017-07-15T18:35:56.987Z,5.50
2017-07-15T18:38:24.310Z,6.20
2017-07-15T18:40:51.604Z,6.90
2017-07-15T18:43:18.910Z,6.87
2017-07-15T18:45:46.196Z,7.97
2017-07-15T18:48:13.956Z,7.17
2017-07-15T18:50:41.287Z,6.73
2017-07-15T18:53:08.646Z,6.47
2017-07-15T18:55:36.164Z,7.67
2017-07-15T18:58:03.500Z,7.07
2017-07-15T19:00:30.826Z,6.80
2017-07-15T19:02:58.127Z,6.90
2017-07-15T19:05:25.482Z,7.27
2017-07-15T19:07:52.763Z,7.03
2017-07-15T19:10:20.083Z,6.90
2017-07-15T19:12:47.390Z,7.50
2017-07-15T19:15:14.718Z,8.63
2017-07-15T19:17:42.037Z,7.70
2017-07-15T19:20:09.363Z,9.23
2017-07-15T19:22:36.715Z,7.63
2017-07-15T19:25:04.041Z,8.57
2017-07-15T19:27:31.341Z,9.13
2017-07-15T19:29:58.645Z,8.33
2017-07-15T19:32:26.003Z,9.77
2017-07-15T19:34:53.350Z,9.67
2017-07-15T19:37:20.698Z,11.50
2017-07-15T19:39:48.325Z,9.70
2017-07-15T19:42:15.674Z,9.60
2017-07-15T19:44:43.039Z,9.03
2017-07-15T19:47:10.348Z,8.77
2017-07-15T19:49:37.686Z,9.60
2017-07-15T19:52:05.006Z,9.73
2017-07-15T19:54:32.309Z,9.50
2017-07-15T19:56:59.620Z,9.73
2017-07-15T19:59:26.938Z,9.60
2017-07-15T20:01:54.299Z,9.53
2017-07-15T20:04:21.640Z,9.77
2017-07-15T20:06:48.974Z,12.43
2017-07-15T20:09:16.316Z,8.40
2017-07-15T20:11:43.953Z,8.67
2017-07-15T20:14:11.288Z,9.87
2017-07-15T20:16:38.585Z,9.47
2017-07-15T20:19:05.898Z,10.13
2017-07-15T20:21:33.220Z,9.17
2017-07-15T20:24:00.554Z,10.20
2017-07-15T20:26:27.862Z,9.70
2017-07-15T20:28:55.179Z,9.60
2017-07-15T20:31:22.473Z,9.87
2017-07-15T20:33:49.794Z,9.60
2017-07-15T20:36:22.845Z,9.80
2017-07-15T20:38:50.176Z,11.73
2017-07-15T20:41:17.497Z,12.27
2017-07-15T20:43:44.835Z,12.07
2017-07-15T20:46:12.176Z,10.40
2017-07-15T20:48:39.595Z,9.20
2017-07-15T20:51:06.956Z,9.50
2017-07-15T20:53:53.096Z,10.00
2017-07-15T20:56:20.406Z,8.87
2017-07-15T20:58:47.713Z,9.67
2017-07-15T21:01:15.065Z,8.20
2017-07-15T21:03:42.408Z,8.33
2017-07-15T21:06:09.745Z,8.63
2017-07-15T21:08:37.079Z,8.40
2017-07-15T21:11:04.433Z,7.70
2017-07-15T21:13:32.059Z,7.87
2017-07-15T21:15:59.408Z,7.13
2017-07-15T21:18:26.737Z,7.73
2017-07-15T21:20:54.052Z,8.27
2017-07-15T21:23:21.338Z,7.77
2017-07-15T21:25:48.852Z,7.77
2017-07-15T21:28:16.223Z,8.60
2017-07-15T21:30:43.568Z,8.00
2017-07-15T21:33:10.931Z,8.03
2017-07-15T21:35:38.251Z,7.57
2017-07-15T21:38:05.555Z,7.63
2017-07-15T21:40:32.851Z,7.23
2017-07-15T21:43:00.180Z,8.03
2017-07-15T21:45:27.492Z,8.87
2017-07-15T21:47:54.810Z,8.20
2017-07-15T21:50:22.102Z,8.93
2017-07-15T21:52:49.427Z,8.90
2017-07-15T21:55:16.739Z,9.03
2017-07-15T21:57:44.101Z,8.53
2017-07-15T22:00:11.436Z,9.73
2017-07-15T22:02:38.732Z,8.70
2017-07-15T22:05:06.083Z,8.60
2017-07-15T22:07:33.366Z,8.63
2017-07-15T22:10:00.703Z,9.27
2017-07-15T22:12:28.032Z,10.40
2017-07-15T22:14:55.348Z,10.63
2017-07-15T22:17:22.639Z,9.63
2017-07-15T22:19:49.975Z,9.73
2017-07-15T22:22:17.295Z,9.97
2017-07-15T22:24:44.608Z,9.77
2017-07-15T22:27:11.904Z,10.23
2017-07-15T22:29:39.257Z,9.63
2017-07-15T22:32:06.548Z,9.30
2017-07-15T22:34:33.852Z,10.20
2017-07-15T22:37:01.167Z,9.53
2017-07-15T22:39:29.404Z,9.80
2017-07-15T22:41:56.720Z,9.70
2017-07-15T22:44:24.020Z,9.33
2017-07-15T22:46:51.352Z,9.90
2017-07-15T22:49:18.653Z,9.83
2017-07-15T22:51:45.966Z,9.57
2017-07-15T22:54:13.269Z,9.93
2017-07-15T22:56:40.815Z,9.70
2017-07-15T22:59:08.300Z,10.30
2017-07-15T23:01:35.640Z,10.13
2017-07-15T23:04:02.991Z,10.60
2017-07-15T23:06:30.324Z,11.00
2017-07-15T23:08:57.698Z,9.80
2017-07-15T23:11:25.010Z,10.60
2017-07-15T23:13:52.531Z,10.47
2017-07-15T23:16:19.827Z,10.70
2017-07-15T23:18:47.139Z,10.83
2017-07-15T23:21:14.444Z,10.77
2017-07-15T23:23:41.771Z,10.97
2017-07-15T23:26:09.075Z,10.80
2017-07-15T23:28:36.398Z,10.77
2017-07-15T23:31:03.701Z,12.00
2017-07-15T23:33:31.042Z,12.77
2017-07-15T23:35:58.371Z,12.67
2017-07-15T23:38:25.719Z,12.67
2017-07-15T23:40:53.035Z,11.97
2017-07-15T23:43:20.372Z,12.87
2017-07-15T23:45:47.661Z,15.37
2017-07-15T23:48:14.956Z,13.93
2017-07-15T23:50:42.280Z,14.90
2017-07-15T23:53:09.590Z,14.87
2017-07-15T23:55:36.913Z,13.27
2017-07-15T23:58:04.220Z,14.20
